Time;durP1;ratioP1;P1;durP2;ratioP2;P2;SDS_P1;SDS_P2;PMS_P1;PMS_P2;Temp;Humidity;BMP_temperature;BMP_pressure;BME280_temperature;BME280_humidity;BME280_pressure;Samples;Min_cycle;Max_cycle;Signal;HPM_P1;HPM_P2
2023/02/05 00:00:33;;;;;;;15.65;12.13;;;11.30;99.90;;;11.41;90.04;103591.13;5074985;28;20044;-73
2023/02/05 00:03:02;;;;;;;16.50;11.63;;;11.30;99.90;;;11.55;89.78;103584.56;5074857;28;20109;-74
2023/02/05 00:05:30;;;;;;;22.50;11.27;;;11.40;99.90;;;11.03;89.40;103467.00;5092719;28;20075;-73
2023/02/05 00:07:59;;;;;;;14.05;9.52;;;11.50;99.90;;;11.64;88.67;103594.56;5092719;28;20048;-76
2023/02/05 00:10:28;;;;;;;12.77;10.15;;;11.40;99.90;;;10.94;88.66;103468.41;5093324;28;20048;-79
2023/02/05 00:12:58;;;;;;;11.68;8.50;;;11.30;99.90;;;11.38;87.80;103553.91;5074801;28;20094;-77
2023/02/05 00:15:26;;;;;;;11.30;7.82;;;11.30;99.90;;;11.43;87.56;103556.72;5093323;28;20051;-82
2023/02/05 00:17:55;;;;;;;13.10;8.70;;;11.30;99.90;;;11.28;86.67;103557.09;5077448;28;20044;-76
2023/02/05 00:20:23;;;;;;;12.35;8.70;;;11.20;99.90;;;11.38;86.25;103566.25;5096974;28;20048;-76
2023/02/05 00:22:52;;;;;;;12.95;8.27;;;11.20;99.90;;;11.48;86.14;103579.88;5096423;28;20055;-76
2023/02/05 00:25:20;;;;;;;8.00;7.18;;;11.30;99.90;;;11.27;84.99;103575.56;5096343;28;20048;-70
2023/02/05 00:27:49;;;;;;;11.80;7.10;;;11.20;99.90;;;11.26;85.10;103581.72;5078370;28;20056;-77
2023/02/05 00:30:19;;;;;;;9.05;6.72;;;11.10;99.90;;;11.40;85.10;103585.78;5096566;28;20503;-77
2023/02/05 00:32:48;;;;;;;;;;;11.20;99.90;;;11.48;84.55;103587.84;5096717;28;20135;-77
2023/02/05 00:35:16;;;;;;;10.52;6.60;;;11.30;99.90;;;11.34;83.55;103581.13;5078223;28;19920;-77
2023/02/05 00:37:45;;;;;;;11.18;6.75;;;11.20;99.90;;;11.37;83.70;103581.25;5078070;28;20044;-77
2023/02/05 00:40:14;;;;;;;8.63;6.15;;;11.20;99.90;;;11.36;83.15;103581.22;5096272;28;20134;-77
2023/02/05 00:42:42;;;;;;;9.13;6.03;;;11.20;99.90;;;11.29;82.82;103595.06;5077864;28;20047;-77
2023/02/05 00:45:10;;;;;;;10.10;6.18;;;11.10;99.90;;;11.24;82.69;103580.75;5095962;28;20078;-77
2023/02/05 00:47:40;;;;;;;11.77;5.47;;;11.00;99.90;;;11.30;82.12;103595.16;5096265;28;20083;-77
2023/02/05 00:50:09;;;;;;;9.00;5.43;;;11.10;99.90;;;11.19;82.07;103611.50;5077995;28;20379;-77
2023/02/05 00:52:38;;;;;;;6.90;5.15;;;11.00;99.90;;;11.19;82.49;103612.38;5078015;28;20316;-76
2023/02/05 00:55:07;;;;;;;8.48;5.03;;;11.00;99.90;;;11.01;82.69;103589.63;5077951;28;20139;-77
2023/02/05 00:57:36;;;;;;;9.30;5.22;;;10.90;99.90;;;11.12;82.70;103596.19;5096011;28;20040;-77
2023/02/05 01:00:07;;;;;;;10.35;5.60;;;10.90;99.90;;;11.08;83.16;103584.59;5096009;28;20411;-77
2023/02/05 01:02:36;;;;;;;6.85;5.18;;;10.90;99.90;;;11.10;83.00;103574.97;5095746;28;20086;-77
2023/02/05 01:05:07;;;;;;;12.95;5.57;;;11.00;99.90;;;11.06;83.26;103586.28;5077706;28;20559;-77
2023/02/05 01:07:36;;;;;;;9.02;5.78;;;11.00;99.90;;;10.96;83.11;103569.97;5095864;28;20059;-77
2023/02/05 01:10:06;;;;;;;7.43;5.07;;;11.00;99.90;;;11.01;83.74;103605.50;5077655;28;20055;-77
2023/02/05 01:12:34;;;;;;;8.60;4.93;;;10.80;99.90;;;10.99;83.94;103605.47;5077553;28;20109;-77
2023/02/05 01:15:05;;;;;;;5.80;4.40;;;10.80;99.90;;;11.04;83.89;103584.41;5095722;28;20093;-78
2023/02/05 01:17:34;;;;;;;6.63;4.25;;;10.90;99.90;;;11.14;83.93;103581.25;5095341;28;20068;-78
2023/02/05 01:20:02;;;;;;;9.57;4.25;;;10.90;99.90;;;11.14;83.37;103587.47;5077200;28;20497;-78
2023/02/05 01:22:33;;;;;;;10.95;4.35;;;11.00;99.90;;;10.66;83.12;103500.91;5077311;28;20040;-78
2023/02/05 01:25:01;;;;;;;7.78;4.85;;;10.90;99.90;;;10.87;82.64;103560.88;5095821;28;20044;-78
2023/02/05 01:27:30;;;;;;;7.78;4.70;;;10.90;99.90;;;10.96;82.89;103592.06;5076854;28;20044;-78
2023/02/05 01:29:59;;;;;;;6.97;4.22;;;10.80;99.90;;;10.73;83.04;103562.09;5095161;28;20486;-78
2023/02/05 01:32:28;;;;;;;8.85;4.38;;;10.70;99.90;;;10.85;83.36;103601.38;5077277;28;20155;-77
2023/02/05 01:34:56;;;;;;;6.60;4.57;;;10.60;99.90;;;10.64;84.03;103598.81;5095029;28;20079;-77
2023/02/05 01:37:25;;;;;;;7.53;4.88;;;10.50;99.90;;;10.81;83.76;103604.75;5077037;28;20040;-78
2023/02/05 01:39:55;;;;;;;6.72;4.32;;;10.50;99.90;;;10.84;83.56;103607.50;5095234;28;20040;-78
2023/02/05 01:42:27;;;;;;;8.27;5.07;;;10.60;99.90;;;10.74;83.37;103589.47;5095507;28;20050;-78
2023/02/05 01:45:55;;;;;;;7.68;4.38;;;10.50;99.90;;;10.51;83.65;103545.34;5077028;28;20413;-78
2023/02/05 01:48:28;;;;;;;11.85;5.35;;;10.60;99.90;;;10.60;83.65;103545.69;5095119;28;20082;-78
2023/02/05 01:51:01;;;;;;;10.40;5.18;;;10.60;99.90;;;10.83;83.45;103579.22;5076924;28;20063;-77
2023/02/05 01:53:35;;;;;;;11.40;4.90;;;10.60;99.90;;;9.23;83.62;103332.19;5076917;28;20136;-78
2023/02/05 01:56:09;;;;;;;8.70;4.75;;;10.60;99.90;;;10.65;84.57;103570.56;5094974;28;20040;-78
2023/02/05 01:58:42;;;;;;;9.93;4.93;;;10.50;99.90;;;10.60;85.32;103558.91;5094616;28;20044;-78
2023/02/05 02:01:11;;;;;;;12.25;5.20;;;10.50;99.90;;;10.78;85.16;103586.97;5094876;28;20066;-78
2023/02/05 02:03:40;;;;;;;12.63;4.90;;;10.50;99.90;;;10.68;85.72;103581.28;5076628;28;20040;-78
2023/02/05 02:06:10;;;;;;;13.18;5.03;;;10.50;99.90;;;10.57;86.46;103570.28;5076587;28;20052;-78
2023/02/05 02:08:39;;;;;;;12.38;5.07;;;10.40;99.90;;;10.57;87.42;103551.75;5094325;28;20453;-77
2023/02/05 02:11:10;;;;;;;13.75;6.00;;;10.40;99.90;;;10.71;87.33;103547.88;5094318;28;20393;-79
2023/02/05 02:13:40;;;;;;;10.35;6.07;;;10.50;99.90;;;10.64;87.63;103550.25;5076423;28;20083;-79
2023/02/05 02:16:09;;;;;;;11.30;5.68;;;10.40;99.90;;;10.44;87.91;103507.13;5093211;28;20146;-79
2023/02/05 02:18:38;;;;;;;13.40;5.47;;;10.40;99.90;;;10.64;88.33;103551.16;5094181;28;20531;-79
2023/02/05 02:21:45;;;;;;;11.67;6.30;;;10.40;99.90;;;10.64;88.09;103518.50;5076025;28;20055;-78
2023/02/05 02:24:49;;;;;;;15.43;6.70;;;10.50;99.90;;;10.65;88.25;103533.50;5094119;28;20332;-79
2023/02/05 02:27:42;;;;;;;12.68;6.10;;;10.50;99.90;;;10.58;88.40;103511.22;5009653;28;20117;-79
2023/02/05 02:30:19;;;;;;;15.18;6.45;;;10.50;99.90;;;10.76;88.41;103524.25;5094058;28;20126;-78
2023/02/05 02:32:58;;;;;;;12.55;5.53;;;10.60;99.90;;;10.71;88.52;103515.22;5094255;28;20044;-78
2023/02/05 02:35:39;;;;;;;12.82;6.20;;;10.50;99.90;;;10.69;88.34;103515.16;5076196;28;20078;-79
2023/02/05 02:38:14;;;;;;;14.10;6.05;;;10.60;99.90;;;10.45;88.81;103518.63;5094241;28;20078;-78
2023/02/05 02:40:47;;;;;;;14.93;5.95;;;10.30;99.90;;;10.40;89.03;103494.63;5075150;28;20048;-79
2023/02/05 02:43:24;;;;;;;16.45;6.70;;;10.40;99.90;;;10.47;89.25;103519.59;5075857;28;20043;-78
2023/02/05 02:46:00;;;;;;;13.68;6.90;;;10.30;99.90;;;10.50;89.43;103511.75;5092812;28;20048;-79
2023/02/05 02:48:31;;;;;;;17.08;7.07;;;10.30;99.90;;;10.40;89.09;103509.59;5093786;28;20040;-79
2023/02/05 02:51:01;;;;;;;12.65;6.70;;;10.20;99.90;;;10.37;89.37;103512.13;5075919;28;20094;-79
2023/02/05 02:53:38;;;;;;;14.80;7.03;;;10.20;99.90;;;10.41;89.05;103519.34;5075913;28;20040;-79
2023/02/05 02:56:11;;;;;;;13.95;7.03;;;10.20;99.90;;;10.20;88.87;103495.59;5093966;28;20048;-78
2023/02/05 02:58:46;;;;;;;14.95;6.95;;;10.20;99.90;;;9.93;89.60;103466.28;5075632;28;20055;-79
2023/02/05 03:01:20;;;;;;;17.45;7.88;;;10.10;99.90;;;10.28;89.90;103514.44;5075614;28;20402;-79
2023/02/05 03:03:54;;;;;;;15.07;8.10;;;10.10;99.90;;;10.18;89.89;103502.56;5075603;28;20159;-78
2023/02/05 03:06:23;;;;;;;11.75;7.50;;;10.10;99.90;;;10.26;90.10;103508.19;5093741;28;20047;-79
2023/02/05 03:08:58;;;;;;;22.27;7.88;;;10.20;99.90;;;10.17;90.58;103519.28;5075518;28;20058;-78
2023/02/05 03:11:27;;;;;;;15.45;8.07;;;10.10;99.90;;;10.03;91.82;103517.78;5093531;28;20059;-79
2023/02/05 03:13:57;;;;;;;19.60;8.60;;;10.00;99.90;;;10.01;92.22;103517.75;5075265;28;20543;-79
2023/02/05 03:16:31;;;;;;;23.75;8.75;;;9.90;99.90;;;9.86;93.63;103526.78;5075413;28;20044;-79
2023/02/05 03:19:01;;;;;;;24.10;10.30;;;9.80;99.90;;;9.70;94.41;103488.25;5093288;28;20146;-79
2023/02/05 03:21:36;;;;;;;18.85;9.10;;;9.80;99.90;;;9.79;95.83;103516.81;5075319;28;20052;-79
2023/02/05 03:24:06;;;;;;;18.95;9.35;;;9.70;99.90;;;9.15;96.75;103404.00;5075303;28;20051;-79
2023/02/05 03:26:37;;;;;;;20.98;9.57;;;9.70;99.90;;;9.30;98.41;103465.38;5093067;28;20040;-79
2023/02/05 03:29:33;;;;;;;24.90;10.57;;;9.50;99.90;;;9.23;99.99;103472.16;5075237;28;20126;-79
2023/02/05 03:32:28;;;;;;;19.38;10.88;;;9.40;99.90;;;9.35;100.00;103524.63;5075278;28;20481;-79
2023/02/05 03:35:13;;;;;;;19.42;11.07;;;9.30;99.90;;;9.15;100.00;103504.34;5093175;28;20493;-78
2023/02/05 03:37:54;;;;;;;21.73;11.90;;;9.20;99.90;;;9.12;100.00;103515.66;5075139;28;20059;-78
2023/02/05 03:40:31;;;;;;;23.45;11.75;;;9.10;99.90;;;9.34;100.00;103534.25;5093100;28;20043;-79
2023/02/05 03:43:11;;;;;;;17.90;11.57;;;9.10;99.90;;;9.15;100.00;103494.69;5075270;28;20040;-79
2023/02/05 03:45:49;;;;;;;;;;;9.20;99.90;;;9.19;100.00;103517.75;5075623;28;20044;-79
2023/02/05 03:48:49;;;;;;;26.38;13.60;;;9.10;99.90;;;9.42;100.00;103546.06;5075161;28;19920;-79
2023/02/05 03:51:27;;;;;;;22.45;13.13;;;9.30;99.90;;;9.34;100.00;103539.56;5076473;28;20047;-78
2023/02/05 03:54:11;;;;;;;19.92;12.65;;;9.20;99.90;;;9.08;100.00;103487.31;5079189;28;20056;-78
2023/02/05 03:56:51;;;;;;;21.02;13.13;;;9.20;99.90;;;9.37;100.00;103544.06;5079163;28;20120;-78
2023/02/05 03:59:22;;;;;;;20.50;12.80;;;9.20;99.90;;;9.42;100.00;103555.72;5079008;28;20067;-77
2023/02/05 04:01:53;;;;;;;21.33;11.93;;;9.30;99.90;;;9.49;100.00;103561.34;5079070;28;20443;-76
2023/02/05 04:04:22;;;;;;;19.52;13.70;;;9.30;99.90;;;9.51;100.00;103554.38;5078747;28;20042;-76
2023/02/05 04:06:53;;;;;;;20.15;13.63;;;9.30;99.90;;;9.28;100.00;103534.00;5078900;28;20079;-77
2023/02/05 04:09:22;;;;;;;16.73;13.18;;;9.30;99.90;;;9.27;100.00;103552.44;5078823;28;20044;-76
2023/02/05 04:11:51;;;;;;;19.35;13.40;;;9.20;99.90;;;9.32;100.00;103554.44;5078820;28;20043;-76
2023/02/05 04:14:21;;;;;;;21.10;13.07;;;9.20;99.90;;;9.29;100.00;103559.56;5096889;28;20055;-76
2023/02/05 04:16:52;;;;;;;17.90;12.80;;;9.10;99.90;;;9.35;100.00;103572.16;5096963;28;20044;-76
2023/02/05 04:19:23;;;;;;;22.13;12.60;;;9.20;99.90;;;9.34;100.00;103576.53;5078438;28;20067;-76
2023/02/05 04:21:54;;;;;;;16.90;11.35;;;9.20;99.90;;;9.12;100.00;103563.19;5096475;28;20072;-76
2023/02/05 04:24:24;;;;;;;16.73;9.23;;;9.10;99.90;;;9.13;100.00;103548.25;5078424;28;20043;-75
2023/02/05 04:26:53;;;;;;;15.60;9.05;;;9.10;99.90;;;9.33;100.00;103566.78;5078811;28;20398;-76
2023/02/05 04:29:22;;;;;;;14.60;8.27;;;9.20;99.90;;;9.37;100.00;103555.50;5078398;28;20055;-75
2023/02/05 04:31:53;;;;;;;16.15;6.97;;;9.30;99.90;;;9.28;100.00;103539.28;5078544;28;20040;-75
2023/02/05 04:34:22;;;;;;;12.88;6.10;;;9.30;99.90;;;9.12;100.00;103573.75;5096538;28;20101;-75
2023/02/05 04:36:50;;;;;;;14.18;5.55;;;9.20;99.90;;;9.16;100.00;103559.84;5096364;28;20071;-75
2023/02/05 04:39:19;;;;;;;13.88;5.60;;;9.20;99.90;;;9.30;100.00;103589.53;5078146;28;20048;-75
2023/02/05 04:41:48;;;;;;;18.30;5.38;;;9.20;99.90;;;9.24;100.00;103554.91;5078208;28;20072;-75
2023/02/05 04:44:16;;;;;;;20.20;5.63;;;9.40;99.90;;;9.47;100.00;103609.66;5078129;28;20135;-76
2023/02/05 04:46:45;;;;;;;22.70;6.00;;;9.40;99.90;;;9.05;100.00;103600.72;5096007;28;20040;-75
2023/02/05 04:49:14;;;;;;;25.20;5.50;;;9.10;99.90;;;9.22;100.00;103610.31;5095946;28;20048;-75
2023/02/05 04:51:43;;;;;;;19.73;5.85;;;9.20;99.90;;;9.37;100.00;103629.47;5078046;28;20404;-75
2023/02/05 04:54:11;;;;;;;21.35;6.15;;;9.20;99.90;;;9.12;100.00;103612.50;5078043;28;20136;-75
2023/02/05 04:56:40;;;;;;;23.77;6.10;;;9.20;99.90;;;8.89;100.00;103575.38;5095828;28;20123;-75
2023/02/05 04:59:09;;;;;;;22.80;6.30;;;9.20;99.90;;;9.27;100.00;103629.91;5077808;28;20048;-75
2023/02/05 05:01:39;;;;;;;29.55;7.38;;;9.20;99.90;;;8.93;100.00;103611.63;5077743;28;20048;-75
2023/02/05 05:04:09;;;;;;;25.55;6.20;;;9.00;99.90;;;8.94;100.00;103633.66;5095010;28;20494;-75
2023/02/05 05:06:39;;;;;;;21.42;5.90;;;8.90;99.90;;;9.23;100.00;103635.00;5095666;28;20040;-75
2023/02/05 05:09:07;;;;;;;30.00;7.30;;;9.00;99.90;;;9.00;100.00;103636.59;5095867;28;20075;-75
2023/02/05 05:11:36;;;;;;;34.92;7.13;;;8.90;99.90;;;8.81;100.00;103645.38;5095559;28;20127;-75
2023/02/05 05:14:04;;;;;;;26.95;6.63;;;8.90;99.90;;;9.04;100.00;103649.06;5077654;28;20040;-75
2023/02/05 05:16:33;;;;;;;23.58;6.68;;;9.00;99.90;;;9.11;99.32;103656.47;5095446;28;20040;-75
2023/02/05 05:19:01;;;;;;;33.78;7.05;;;9.00;99.90;;;8.41;98.33;103541.44;5095394;28;20369;-75
2023/02/05 05:21:30;;;;;;;25.67;6.47;;;9.00;99.90;;;9.08;97.26;103674.78;5073381;28;20056;-76
2023/02/05 05:24:00;;;;;;;30.45;6.25;;;9.10;99.90;;;9.10;96.52;103649.34;5075376;28;20040;-75
2023/02/05 05:26:29;;;;;;;36.33;6.87;;;9.20;99.90;;;9.17;95.82;103656.75;5075084;28;20119;-75
2023/02/05 05:28:58;;;;;;;29.05;6.95;;;9.20;99.90;;;9.05;94.53;103678.22;5075257;28;20041;-75
2023/02/05 05:31:27;;;;;;;28.63;6.97;;;9.10;99.90;;;6.90;93.27;103272.34;5073932;28;20095;-75
2023/02/05 05:33:56;;;;;;;25.42;6.13;;;9.10;99.90;;;9.17;92.80;103672.59;5073876;28;20456;-76
2023/02/05 05:36:24;;;;;;;27.88;6.20;;;9.10;99.90;;;8.94;91.77;103655.66;5074892;28;20044;-75
2023/02/05 05:38:52;;;;;;;25.20;6.50;;;9.10;99.90;;;9.21;92.10;103698.31;5073753;28;20109;-75
2023/02/05 05:44:11;;;;;;;27.75;6.82;;;9.10;99.90;;;9.09;90.84;103666.97;5074703;28;20036;-76
2023/02/05 05:46:39;;;;;;;24.63;7.28;;;9.20;99.90;;;9.36;90.54;103695.47;5074989;28;20041;-76
2023/02/05 05:49:08;;;;;;;25.52;7.03;;;9.30;99.90;;;7.29;89.97;103371.69;5074832;28;20210;-76
2023/02/05 05:51:36;;;;;;;31.13;7.03;;;9.40;99.90;;;9.44;90.06;103686.16;5073302;28;20052;-76
2023/02/05 05:54:05;;;;;;;27.85;6.18;;;9.40;99.90;;;9.23;89.59;103669.34;5074501;28;20036;-76
2023/02/05 05:56:35;;;;;;;23.77;6.70;;;9.20;99.90;;;9.34;88.96;103676.91;5073458;28;20090;-76
2023/02/05 05:59:03;;;;;;;23.90;6.40;;;9.30;99.90;;;9.46;88.24;103700.34;5073353;28;20098;-76
2023/02/05 06:01:32;;;;;;;23.75;6.28;;;9.40;99.90;;;9.35;87.82;103681.34;5074320;28;20668;-76
2023/02/05 06:04:00;;;;;;;24.80;6.40;;;9.40;99.90;;;9.37;87.40;103681.44;5074484;28;20119;-76
2023/02/05 06:06:31;;;;;;;23.77;6.55;;;9.40;99.90;;;8.82;88.49;103670.03;5074596;28;20040;-76
2023/02/05 06:09:00;;;;;;;29.00;6.93;;;9.10;99.90;;;9.13;87.97;103691.78;5074183;28;20047;-78
2023/02/05 06:11:28;;;;;;;27.67;6.40;;;9.20;99.90;;;9.22;87.32;103713.31;5074093;28;20036;-76
2023/02/05 06:13:58;;;;;;;30.67;7.15;;;9.10;99.90;;;9.21;87.23;103711.53;5074078;28;20069;-76
2023/02/05 06:16:26;;;;;;;28.75;6.43;;;9.10;99.90;;;9.34;86.19;103732.38;5089887;28;20468;-75
2023/02/05 06:18:56;;;;;;;25.90;7.25;;;9.30;99.90;;;8.78;85.87;103650.50;5072918;28;20395;-77
2023/02/05 06:21:24;;;;;;;22.98;6.22;;;9.20;99.90;;;9.42;86.04;103732.72;5081173;28;20066;-75
2023/02/05 06:23:53;;;;;;;29.63;6.65;;;9.30;99.90;;;9.41;86.00;103715.97;5094363;28;20056;-76
2023/02/05 06:26:21;;;;;;;26.58;6.30;;;9.40;99.90;;;9.57;85.61;103736.97;5094090;28;20097;-75
2023/02/05 06:28:50;;;;;;;25.05;6.07;;;9.50;99.90;;;9.45;85.22;103746.97;5094056;28;20044;-76
2023/02/05 06:31:19;;;;;;;28.23;6.80;;;9.40;99.90;;;9.48;85.55;103743.59;5094564;28;20050;-76
2023/02/05 06:33:48;;;;;;;26.38;6.82;;;9.40;99.90;;;9.45;85.18;103723.22;5094295;28;20040;-76
2023/02/05 06:36:17;;;;;;;33.30;7.57;;;9.50;99.90;;;9.35;85.16;103750.03;5093836;28;20078;-76
2023/02/05 06:38:45;;;;;;;29.52;6.90;;;9.40;99.90;;;9.33;85.64;103770.19;5075965;28;20138;-76
2023/02/05 06:41:13;;;;;;;27.92;6.13;;;9.30;99.90;;;9.36;84.95;103775.63;5093726;28;20047;-76
2023/02/05 06:43:42;;;;;;;28.40;6.90;;;9.30;99.90;;;9.35;85.44;103779.09;5075559;28;20047;-76
2023/02/05 06:46:10;;;;;;;31.63;7.18;;;9.30;99.90;;;9.41;85.06;103782.03;5093692;28;20044;-76
2023/02/05 06:48:40;;;;;;;33.55;7.50;;;9.30;99.90;;;9.28;85.17;103781.38;5094263;28;20043;-76
2023/02/05 06:51:09;;;;;;;27.25;7.07;;;9.20;99.90;;;9.28;85.00;103782.28;5075725;28;20055;-76
2023/02/05 06:53:37;;;;;;;27.92;7.47;;;9.20;99.90;;;9.25;85.41;103795.34;5093914;28;20119;-76
2023/02/05 06:56:06;;;;;;;32.13;7.85;;;9.20;99.90;;;9.40;84.49;103803.09;5093533;28;20040;-76
2023/02/05 06:58:35;;;;;;;36.15;8.07;;;9.30;99.90;;;8.86;84.33;103701.03;5094143;28;20062;-76
2023/02/05 07:01:04;;;;;;;30.00;7.20;;;9.30;99.90;;;9.31;83.60;103839.66;5093401;28;20051;-78
2023/02/05 07:03:32;;;;;;;28.45;7.50;;;9.30;99.90;;;9.32;83.59;103809.75;5093713;28;20374;-77
2023/02/05 07:06:06;;;;;;;36.78;7.22;;;9.30;99.90;;;9.16;83.72;103823.94;5093464;28;20044;-76
2023/02/05 07:08:35;;;;;;;30.85;7.43;;;9.30;99.90;;;9.21;84.37;103824.19;5093407;28;20051;-76
2023/02/05 07:11:04;;;;;;;29.38;7.03;;;9.20;99.90;;;9.24;84.36;103825.22;5093322;28;20043;-76
2023/02/05 07:13:33;;;;;;;26.52;7.10;;;9.20;99.90;;;7.13;84.22;103503.34;5075523;28;20083;-77
2023/02/05 07:16:04;;;;;;;30.77;7.15;;;9.30;99.90;;;9.28;84.69;103839.47;5093574;28;20044;-77
2023/02/05 07:18:33;;;;;;;29.08;7.18;;;9.20;99.90;;;9.17;84.68;103820.50;5093323;28;20040;-77
2023/02/05 07:21:08;;;;;;;31.05;8.02;;;9.20;99.90;;;8.76;85.71;103763.03;5092899;28;20081;-78
2023/02/05 07:23:37;;;;;;;33.03;8.25;;;9.10;99.90;;;8.93;85.42;103784.94;5075025;28;20059;-77
2023/02/05 07:26:10;;;;;;;30.00;7.15;;;9.20;99.90;;;9.10;86.48;103844.75;5092693;28;20076;-75
2023/02/05 07:28:39;;;;;;;33.97;7.82;;;9.20;99.90;;;8.96;87.11;103841.44;5093025;28;20089;-76
2023/02/05 07:31:10;;;;;;;28.40;7.45;;;9.10;99.90;;;9.23;87.48;103876.25;5075161;28;20505;-77
2023/02/05 07:33:39;;;;;;;28.20;7.00;;;9.10;99.90;;;9.23;87.95;103876.25;5075250;28;20047;-76
2023/02/05 07:36:12;;;;;;;28.90;7.30;;;9.10;99.90;;;9.16;87.58;103875.84;5093032;28;20044;-76
2023/02/05 07:38:40;;;;;;;29.40;6.78;;;9.20;99.90;;;9.35;87.43;103895.31;5093109;28;20093;-73
2023/02/05 07:41:12;;;;;;;25.23;6.03;;;9.20;99.90;;;8.83;86.95;103831.09;5092871;28;20140;-74
2023/02/05 07:43:41;;;;;;;27.73;7.18;;;9.10;99.90;;;9.23;87.19;103899.13;5093286;28;20051;-74
2023/02/05 07:46:12;;;;;;;22.17;6.55;;;9.20;99.90;;;9.13;86.68;103903.03;5093526;28;20036;-73
2023/02/05 07:48:41;;;;;;;32.20;7.25;;;9.10;99.90;;;9.19;86.77;103894.50;5092973;28;20040;-72
2023/02/05 07:51:16;;;;;;;35.85;7.10;;;9.20;99.90;;;8.87;87.44;103874.41;5075412;28;20095;-73
2023/02/05 07:53:45;;;;;;;30.35;7.75;;;9.00;99.90;;;9.06;87.63;103892.97;5093183;28;20067;-73
2023/02/05 07:56:14;;;;;;;32.00;7.13;;;9.00;99.90;;;9.13;87.07;103886.28;5092843;28;20084;-72
2023/02/05 07:58:43;;;;;;;38.33;8.68;;;9.10;99.90;;;9.09;87.45;103901.97;5092871;28;20048;-75
2023/02/05 08:01:11;;;;;;;38.45;7.85;;;9.10;99.90;;;9.12;86.97;103872.16;5091747;28;20040;-76
2023/02/05 08:03:40;;;;;;;38.15;7.78;;;9.20;99.90;;;9.24;86.55;103899.19;5093175;28;20059;-69
2023/02/05 08:06:14;;;;;;;38.13;8.15;;;9.20;99.90;;;9.22;86.36;103898.19;5092660;28;20032;-71
2023/02/05 08:08:43;;;;;;;31.02;8.05;;;9.20;99.90;;;9.21;86.22;103913.97;5092612;28;20371;-73
2023/02/05 08:11:15;;;;;;;36.00;7.85;;;9.10;99.90;;;9.42;85.48;103917.69;5074357;28;20070;-73
2023/02/05 08:13:45;;;;;;;46.25;10.05;;;9.20;99.90;;;9.37;84.49;103898.06;5092680;28;20144;-74
2023/02/05 08:16:15;;;;;;;38.55;8.68;;;9.30;99.90;;;9.58;83.92;103923.78;5092880;28;20486;-74
2023/02/05 08:18:49;;;;;;;52.78;9.75;;;9.50;99.90;;;9.46;83.33;103936.41;5092906;28;20048;-74
2023/02/05 08:21:20;;;;;;;49.85;9.00;;;9.40;99.90;;;9.48;82.88;103920.63;5092439;28;20060;-71
2023/02/05 08:23:49;;;;;;;41.30;9.30;;;9.40;99.90;;;9.56;82.27;103922.78;5092487;28;20486;-72
2023/02/05 08:26:18;;;;;;;40.83;8.80;;;9.50;99.90;;;9.45;81.98;103905.50;5074619;28;20561;-71
2023/02/05 08:28:46;;;;;;;44.53;8.75;;;9.60;99.90;;;9.65;81.64;103941.75;5074566;28;20048;-71
2023/02/05 08:31:19;;;;;;;50.50;9.98;;;9.60;99.90;;;9.60;81.89;103930.03;5092488;28;20040;-72
2023/02/05 08:33:49;;;;;;;40.75;9.45;;;9.60;99.90;;;9.73;81.54;103940.41;5092462;28;20044;-71
2023/02/05 08:36:19;;;;;;;46.90;9.30;;;9.60;99.90;;;9.67;80.92;103945.38;5092825;28;20040;-70
2023/02/05 08:38:48;;;;;;;46.97;10.30;;;9.70;99.90;;;9.37;81.82;103941.22;5095002;28;20145;-75
2023/02/05 08:41:16;;;;;;;43.30;9.50;;;9.40;99.90;;;9.66;81.70;103961.13;5095994;28;20047;-78
2023/02/05 08:43:47;;;;;;;50.92;10.23;;;9.60;99.90;;;9.81;80.79;103956.63;5077907;28;20040;-79
2023/02/05 08:46:21;;;;;;;49.67;9.80;;;9.70;99.90;;;9.70;80.43;103937.59;5078088;28;20460;-76
2023/02/05 08:48:49;;;;;;;48.05;10.30;;;9.80;99.90;;;9.89;80.14;103956.13;5096015;28;20044;-76
2023/02/05 08:51:21;;;;;;;47.55;9.75;;;9.80;99.90;;;9.76;80.41;103953.75;5077988;28;20052;-79
2023/02/05 08:53:50;;;;;;;53.58;10.18;;;9.70;99.90;;;9.89;79.82;103961.44;5078053;28;20109;-78
2023/02/05 08:56:19;;;;;;;49.78;10.70;;;9.80;99.90;;;9.84;79.59;103962.97;5077835;28;20155;-70
2023/02/05 08:58:48;;;;;;;47.53;9.48;;;9.80;99.90;;;9.91;79.50;103982.69;5095679;28;20488;-74
2023/02/05 09:01:17;;;;;;;49.47;10.38;;;9.80;99.90;;;9.95;79.69;103967.00;5077709;28;20044;-75
2023/02/05 09:03:46;;;;;;;44.78;10.25;;;9.90;99.90;;;9.58;79.94;103960.75;5095324;28;20048;-76
2023/02/05 09:06:15;;;;;;;37.15;9.20;;;9.80;99.90;;;9.43;80.40;103898.34;5095533;28;20508;-76
2023/02/05 09:08:45;;;;;;;44.37;9.40;;;9.80;99.90;;;9.75;79.90;103956.31;5095831;28;20097;-76
2023/02/05 09:11:14;;;;;;;50.50;9.77;;;9.80;99.90;;;9.54;80.67;103956.16;5095846;28;20285;-76
2023/02/05 09:13:44;;;;;;;45.80;10.17;;;9.60;99.90;;;9.79;80.46;103967.09;5095834;28;20029;-74
2023/02/05 09:16:12;;;;;;;44.35;10.45;;;9.70;99.90;;;9.90;80.13;103973.84;5095649;28;20289;-75
2023/02/05 09:18:41;;;;;;;51.40;9.43;;;9.80;99.90;;;9.71;78.98;104031.03;5095860;28;20054;-77
2023/02/05 09:21:10;;;;;;;47.72;10.18;;;9.90;99.90;;;9.93;78.57;103979.25;5095487;28;20059;-72
2023/02/05 09:23:39;;;;;;;41.17;9.90;;;9.90;99.90;;;9.55;78.67;103884.00;5095356;28;20044;-72
2023/02/05 09:26:09;;;;;;;47.45;10.95;;;10.00;99.90;;;10.20;78.37;103970.88;5077416;28;20094;-75
2023/02/05 09:28:38;;;;;;;46.53;10.45;;;10.10;99.90;;;10.19;78.07;103963.75;5095596;28;20044;-74
2023/02/05 09:31:09;;;;;;;47.63;10.70;;;10.20;99.90;;;10.23;78.05;103953.38;5095403;28;20048;-73
2023/02/05 09:33:37;;;;;;;;;;;10.20;99.90;;;10.04;77.83;103921.59;5095636;28;20097;-73
2023/02/05 09:36:07;;;;;;;44.50;9.13;;;10.30;99.90;;;10.25;77.55;103961.38;5095330;28;20353;-75
2023/02/05 09:38:36;;;;;;;55.40;10.93;;;10.30;99.90;;;10.39;77.63;103963.84;5095012;28;20040;-75
2023/02/05 09:41:14;;;;;;;44.22;9.38;;;10.30;99.90;;;10.19;77.44;103956.72;5095181;28;20460;-73
2023/02/05 09:43:53;;;;;;;50.75;11.38;;;10.20;99.90;;;10.38;77.55;103979.63;5094859;28;20036;-74
2023/02/05 09:46:34;;;;;;;53.10;11.10;;;10.30;99.90;;;10.38;77.70;103947.88;5076948;28;20565;-75
2023/02/05 09:49:08;;;;;;;59.50;12.35;;;10.30;99.90;;;10.22;78.05;103977.13;5094717;28;20467;-75
2023/02/05 09:51:42;;;;;;;50.80;10.02;;;10.20;99.90;;;10.26;77.62;103963.22;5076926;28;20071;-74
2023/02/05 09:54:18;;;;;;;49.95;9.95;;;10.20;99.90;;;10.33;77.76;103973.25;5094724;28;20036;-75
2023/02/05 09:56:50;;;;;;;50.85;10.00;;;10.20;99.90;;;10.34;77.46;103975.03;5094921;28;20048;-71
2023/02/05 09:59:23;;;;;;;47.70;9.40;;;10.30;99.90;;;9.56;77.68;103856.72;5095118;28;20048;-72
2023/02/05 10:01:56;;;;;;;49.25;9.90;;;10.20;99.90;;;10.21;78.02;103991.19;5094330;28;20467;-73
2023/02/05 10:04:26;;;;;;;45.50;9.02;;;10.20;99.90;;;10.29;78.19;104000.38;5094426;28;20040;-72
2023/02/05 10:07:16;;;;;;;53.08;10.82;;;10.20;99.90;;;10.19;77.89;103987.56;5094441;28;20074;-75
2023/02/05 10:10:21;;;;;;;51.55;10.38;;;10.20;99.90;;;9.96;77.38;103965.28;5094364;28;20040;-75
2023/02/05 10:13:08;;;;;;;53.35;9.65;;;10.20;99.90;;;10.12;77.91;104002.25;5094190;28;20091;-76
2023/02/05 10:15:57;;;;;;;48.58;10.50;;;10.10;99.90;;;10.19;77.67;103987.56;5094266;28;20123;-76
2023/02/05 10:18:43;;;;;;;52.30;10.68;;;10.20;99.90;;;10.33;77.26;103994.41;5094206;28;20085;-76
2023/02/05 10:21:32;;;;;;;47.70;10.50;;;10.30;99.90;;;10.29;77.21;103995.09;5093660;28;20363;-75
2023/02/05 10:24:20;;;;;;;45.28;9.90;;;10.20;99.90;;;10.15;77.30;103983.88;5094072;28;20430;-75
2023/02/05 10:26:52;;;;;;;46.83;9.88;;;10.20;99.90;;;10.27;77.20;103975.59;5094052;28;20047;-76
2023/02/05 10:29:33;;;;;;;49.67;10.98;;;10.30;99.90;;;10.28;76.60;103999.47;5093985;28;20047;-77
2023/02/05 10:32:16;;;;;;;46.25;10.65;;;10.20;99.90;;;10.26;76.63;103957.94;5094214;28;20067;-74
2023/02/05 10:34:58;;;;;;;44.88;9.77;;;10.30;99.90;;;10.40;76.43;104036.19;5093800;28;20135;-73